createdAt,value
2023-05-21T00:01:25.585Z,2.65
2023-05-21T00:03:52.660Z,2.83
2023-05-21T00:06:20.955Z,2.80
2023-05-21T00:08:48.031Z,2.22
2023-05-21T00:11:14.927Z,2.28
2023-05-21T00:13:42.107Z,2.22
2023-05-21T00:16:10.994Z,2.38
2023-05-21T00:18:39.389Z,2.25
2023-05-21T00:21:06.688Z,2.10
2023-05-21T00:23:34.087Z,2.80
2023-05-21T00:30:54.860Z,1.63
2023-05-21T00:33:22.457Z,1.80
2023-05-21T00:35:49.292Z,1.88
2023-05-21T00:38:18.476Z,2.17
2023-05-21T00:40:45.370Z,2.17
2023-05-21T00:43:14.213Z,2.38
2023-05-21T00:45:44.620Z,2.15
2023-05-21T00:48:12.303Z,2.25
2023-05-21T00:50:40.608Z,2.53
2023-05-21T00:53:09.950Z,1.50
2023-05-21T00:55:37.992Z,2.20
2023-05-21T00:58:06.461Z,1.92
2023-05-21T01:00:38.048Z,1.90
2023-05-21T01:03:06.058Z,2.15
2023-05-21T01:05:33.178Z,2.03
2023-05-21T01:08:00.333Z,2.47
2023-05-21T01:10:28.040Z,2.05
2023-05-21T01:12:57.573Z,1.80
2023-05-21T01:15:25.035Z,1.98
2023-05-21T01:20:20.375Z,2.42
2023-05-21T01:22:57.586Z,2.25
2023-05-21T01:25:25.120Z,1.63
2023-05-21T01:30:20.526Z,1.50
2023-05-21T01:33:15.814Z,1.50
2023-05-21T01:35:51.853Z,1.90
2023-05-21T01:38:28.639Z,1.98
2023-05-21T01:41:04.109Z,2.53
2023-05-21T01:43:38.658Z,1.92
2023-05-21T01:46:07.572Z,1.75
2023-05-21T01:48:35.910Z,1.83
2023-05-21T01:51:05.381Z,1.48
2023-05-21T01:53:32.419Z,2.20
2023-05-21T01:55:59.425Z,2.30
2023-05-21T01:58:26.949Z,1.95
2023-05-21T02:00:54.588Z,2.28
2023-05-21T02:05:48.627Z,2.05
2023-05-21T02:08:15.648Z,2.00
2023-05-21T02:10:42.599Z,1.85
2023-05-21T02:13:09.643Z,2.17
2023-05-21T02:15:38.924Z,1.85
2023-05-21T02:18:06.101Z,2.35
2023-05-21T02:20:33.399Z,1.92
2023-05-21T02:23:00.603Z,2.20
2023-05-21T02:25:27.445Z,2.13
2023-05-21T02:27:56.575Z,2.00
2023-05-21T02:30:23.418Z,1.75
2023-05-21T02:32:50.704Z,2.10
2023-05-21T02:35:17.748Z,2.38
2023-05-21T02:37:44.905Z,1.60
2023-05-21T02:40:12.448Z,1.65
2023-05-21T02:42:41.122Z,2.10
2023-05-21T02:45:12.386Z,2.40
2023-05-21T02:47:41.945Z,1.88
2023-05-21T02:50:09.775Z,2.42
2023-05-21T02:52:43.722Z,2.30
2023-05-21T02:55:10.677Z,2.08
2023-05-21T02:57:37.557Z,1.75
2023-05-21T03:00:06.104Z,1.60
2023-05-21T03:02:33.298Z,1.75
2023-05-21T03:05:00.614Z,1.60
2023-05-21T03:07:27.544Z,1.67
2023-05-21T03:09:54.632Z,1.48
2023-05-21T03:12:21.539Z,2.42
2023-05-21T03:14:51.189Z,2.22
2023-05-21T03:17:18.998Z,1.50
2023-05-21T03:19:45.949Z,1.73
2023-05-21T03:22:12.835Z,1.55
2023-05-21T03:24:39.818Z,1.70
2023-05-21T03:27:07.348Z,1.58
2023-05-21T03:29:34.977Z,2.08
2023-05-21T03:32:03.353Z,1.83
2023-05-21T03:34:34.262Z,1.88
2023-05-21T03:37:02.571Z,1.50
2023-05-21T03:39:30.255Z,1.88
2023-05-21T03:41:57.946Z,1.90
2023-05-21T03:44:47.708Z,1.60
2023-05-21T03:47:37.475Z,1.58
2023-05-21T03:50:07.816Z,1.80
2023-05-21T03:52:34.774Z,2.45
2023-05-21T03:55:02.033Z,2.22
2023-05-21T03:57:29.135Z,2.05
2023-05-21T03:59:58.777Z,1.83
2023-05-21T04:02:28.881Z,1.42
2023-05-21T04:04:56.237Z,2.00
2023-05-21T04:07:24.567Z,1.45
2023-05-21T04:09:51.458Z,1.27
2023-05-21T04:12:20.129Z,1.95
2023-05-21T04:14:47.832Z,1.70
2023-05-21T04:17:14.694Z,1.95
2023-05-21T04:19:41.952Z,2.05
2023-05-21T04:22:10.494Z,2.30
2023-05-21T04:24:38.106Z,2.08
2023-05-21T04:27:13.855Z,1.80
2023-05-21T04:29:43.532Z,1.42
2023-05-21T04:32:11.597Z,1.85
2023-05-21T04:34:39.605Z,1.85
2023-05-21T04:37:06.838Z,1.42
2023-05-21T04:39:34.677Z,2.08
2023-05-21T04:42:03.063Z,2.08
2023-05-21T04:44:30.132Z,1.67
2023-05-21T04:46:58.678Z,1.13
2023-05-21T04:49:25.687Z,1.55
2023-05-21T04:51:52.553Z,1.55
2023-05-21T04:54:20.465Z,1.70
2023-05-21T04:56:47.361Z,1.33
2023-05-21T04:59:15.048Z,1.88
2023-05-21T05:01:43.806Z,1.55
2023-05-21T05:04:10.780Z,1.80
2023-05-21T05:06:37.701Z,2.00
2023-05-21T05:09:05.300Z,1.45
2023-05-21T05:11:32.150Z,1.40
2023-05-21T05:13:59.002Z,1.67
2023-05-21T05:16:26.278Z,1.85
2023-05-21T05:18:56.033Z,1.83
2023-05-21T05:21:23.909Z,1.60
2023-05-21T05:23:50.825Z,1.98
2023-05-21T05:26:18.448Z,2.33
2023-05-21T05:28:46.208Z,2.35
2023-05-21T05:31:13.173Z,1.95
2023-05-21T05:33:41.338Z,1.45
2023-05-21T05:36:08.288Z,2.05
2023-05-21T05:38:36.154Z,2.35
2023-05-21T05:41:03.347Z,2.30
2023-05-21T05:43:30.163Z,2.22
2023-05-21T05:45:58.583Z,2.20
2023-05-21T05:48:25.655Z,2.63
2023-05-21T05:50:54.683Z,1.95
2023-05-21T05:53:22.559Z,2.40
2023-05-21T05:55:49.390Z,2.22
2023-05-21T05:58:16.738Z,2.42
2023-05-21T06:00:54.051Z,2.15
2023-05-21T06:03:21.088Z,2.20
2023-05-21T06:05:48.239Z,2.55
2023-05-21T06:08:15.780Z,2.30
2023-05-21T06:10:42.746Z,2.47
2023-05-21T06:13:09.637Z,2.58
2023-05-21T06:15:36.609Z,2.53
2023-05-21T06:18:03.784Z,2.55
2023-05-21T06:20:30.781Z,2.17
2023-05-21T06:22:58.599Z,2.60
2023-05-21T06:25:26.748Z,2.47
2023-05-21T06:27:53.953Z,3.30
2023-05-21T06:30:25.594Z,2.20
2023-05-21T06:32:53.124Z,2.53
2023-05-21T06:35:20.181Z,3.10
2023-05-21T06:37:48.574Z,3.10
2023-05-21T06:40:16.027Z,2.42
2023-05-21T06:42:43.212Z,2.75
2023-05-21T06:45:28.890Z,2.03
2023-05-21T06:48:00.371Z,2.28
2023-05-21T06:50:27.334Z,2.55
2023-05-21T06:52:54.254Z,2.40
2023-05-21T06:55:21.310Z,2.60
2023-05-21T06:58:06.784Z,2.42
2023-05-21T07:00:33.813Z,2.25
2023-05-21T07:03:00.880Z,2.67
2023-05-21T07:05:27.820Z,2.13
2023-05-21T07:07:54.927Z,2.20
2023-05-21T07:10:21.830Z,2.50
2023-05-21T07:12:48.671Z,2.40
2023-05-21T07:15:15.723Z,3.30
2023-05-21T07:17:42.632Z,2.47
2023-05-21T07:20:10.139Z,2.35
2023-05-21T07:22:39.305Z,3.08
2023-05-21T07:25:08.461Z,2.50
2023-05-21T07:27:35.541Z,2.38
2023-05-21T07:30:03.608Z,2.67
2023-05-21T07:37:28.808Z,1.98
2023-05-21T07:39:59.114Z,2.85
2023-05-21T07:42:26.755Z,2.25
2023-05-21T07:44:55.692Z,2.83
2023-05-21T07:47:23.938Z,2.95
2023-05-21T07:49:51.532Z,2.65
2023-05-21T07:52:18.575Z,3.33
2023-05-21T07:59:51.059Z,2.42
2023-05-21T08:02:17.984Z,2.95
2023-05-21T08:04:44.916Z,2.60
2023-05-21T08:07:13.644Z,2.83
2023-05-21T08:09:40.701Z,2.63
2023-05-21T08:12:09.941Z,3.00
2023-05-21T08:14:36.951Z,3.17
2023-05-21T08:17:04.191Z,2.50
2023-05-21T08:19:31.294Z,2.45
2023-05-21T08:21:58.560Z,2.60
2023-05-21T08:24:26.390Z,3.08
2023-05-21T08:26:53.349Z,2.42
2023-05-21T08:29:20.400Z,2.58
2023-05-21T08:31:47.282Z,2.75
2023-05-21T08:34:18.406Z,2.90
2023-05-21T08:36:53.777Z,2.33
2023-05-21T08:39:40.711Z,3.00
2023-05-21T08:42:29.127Z,2.35
2023-05-21T08:45:06.784Z,2.33
2023-05-21T08:47:36.163Z,2.33
2023-05-21T08:50:16.220Z,2.42
2023-05-21T08:52:43.241Z,2.88
2023-05-21T08:55:10.644Z,2.65
2023-05-21T08:57:42.819Z,2.85
2023-05-21T09:00:11.693Z,2.53
2023-05-21T09:02:44.360Z,3.15
2023-05-21T09:05:13.142Z,3.08
2023-05-21T09:07:47.256Z,3.00
2023-05-21T09:10:32.964Z,2.45
2023-05-21T09:13:00.815Z,3.08
2023-05-21T09:15:27.842Z,3.05
2023-05-21T09:17:55.588Z,2.80
2023-05-21T09:20:38.379Z,3.05
2023-05-21T09:25:37.833Z,2.17
2023-05-21T09:28:13.770Z,3.35
2023-05-21T09:30:53.936Z,2.80
2023-05-21T09:33:31.469Z,2.47
2023-05-21T09:35:58.563Z,3.00
2023-05-21T09:38:27.174Z,2.92
2023-05-21T09:43:23.165Z,2.35
2023-05-21T09:48:42.785Z,3.10
2023-05-21T09:51:18.926Z,3.15
2023-05-21T09:53:54.990Z,2.83
2023-05-21T09:56:32.261Z,3.03
2023-05-21T09:59:01.928Z,2.67
2023-05-21T10:01:31.299Z,3.05
2023-05-21T10:03:59.912Z,3.03
2023-05-21T10:06:28.794Z,2.78
2023-05-21T10:08:57.339Z,2.80
2023-05-21T10:11:27.007Z,3.15
2023-05-21T10:14:04.756Z,3.53
2023-05-21T10:16:33.799Z,3.55
2023-05-21T10:19:01.042Z,3.13
2023-05-21T10:21:28.335Z,3.10
2023-05-21T10:23:58.511Z,2.47
2023-05-21T10:26:26.284Z,2.65
2023-05-21T10:28:56.458Z,3.33
2023-05-21T10:31:24.741Z,3.13
2023-05-21T10:33:57.756Z,2.90
2023-05-21T10:36:25.819Z,3.45
2023-05-21T10:38:53.391Z,3.42
2023-05-21T10:41:21.898Z,2.42
2023-05-21T10:44:10.018Z,3.33
2023-05-21T10:46:43.810Z,3.20
2023-05-21T10:49:32.313Z,2.95
2023-05-21T10:52:14.010Z,2.95
2023-05-21T10:54:58.798Z,2.72
2023-05-21T10:58:20.738Z,3.17
2023-05-21T11:00:47.782Z,3.35
2023-05-21T11:05:52.636Z,3.20
2023-05-21T11:08:35.553Z,3.38
2023-05-21T11:11:03.340Z,3.58
2023-05-21T11:13:49.346Z,3.85
2023-05-21T11:16:17.200Z,3.38
2023-05-21T11:18:47.134Z,4.05
2023-05-21T11:21:15.928Z,3.88
2023-05-21T11:23:56.885Z,3.03
2023-05-21T11:26:26.001Z,3.65
2023-05-21T11:29:05.243Z,3.65
2023-05-21T11:31:39.973Z,3.22
2023-05-21T11:34:19.620Z,3.50
2023-05-21T11:36:48.348Z,3.70
2023-05-21T11:39:22.216Z,3.67
2023-05-21T11:42:03.120Z,3.63
2023-05-21T11:44:45.100Z,3.67
2023-05-21T11:47:16.441Z,2.72
2023-05-21T11:49:43.900Z,3.35
2023-05-21T11:52:12.760Z,3.72
2023-05-21T11:54:48.351Z,3.85
2023-05-21T11:57:21.713Z,3.47
2023-05-21T11:59:51.455Z,3.47
2023-05-21T12:02:19.944Z,4.25
2023-05-21T12:04:49.357Z,3.22
2023-05-21T12:07:18.947Z,2.95
2023-05-21T12:09:47.988Z,3.83
2023-05-21T12:12:19.454Z,4.35
2023-05-21T12:14:47.934Z,3.72
2023-05-21T12:17:19.252Z,4.35
2023-05-21T12:19:47.645Z,3.55
2023-05-21T12:22:16.506Z,3.65
2023-05-21T12:24:44.631Z,3.83
2023-05-21T12:27:13.421Z,3.75
2023-05-21T12:29:46.054Z,3.33
2023-05-21T12:32:14.761Z,3.78
2023-05-21T12:34:52.663Z,3.42
2023-05-21T12:37:22.018Z,4.13
2023-05-21T12:39:51.215Z,3.90
2023-05-21T12:42:26.250Z,3.20
2023-05-21T12:44:53.575Z,3.55
2023-05-21T12:47:23.877Z,3.58
2023-05-21T12:49:55.370Z,3.42
2023-05-21T12:52:23.038Z,3.38
2023-05-21T12:54:52.093Z,3.72
2023-05-21T12:57:21.178Z,2.65
2023-05-21T12:59:51.934Z,2.88
2023-05-21T13:02:27.303Z,2.85
2023-05-21T13:04:58.896Z,3.40
2023-05-21T13:07:26.937Z,3.15
2023-05-21T13:09:54.539Z,3.13
2023-05-21T13:12:23.306Z,2.92
2023-05-21T13:14:51.544Z,2.70
2023-05-21T13:17:19.425Z,2.90
2023-05-21T13:20:08.910Z,3.10
2023-05-21T13:22:43.606Z,3.33
2023-05-21T13:25:11.574Z,2.70
2023-05-21T13:27:39.698Z,2.67
2023-05-21T13:30:07.420Z,2.63
2023-05-21T13:32:34.602Z,3.08
2023-05-21T13:35:01.766Z,3.42
2023-05-21T13:37:29.210Z,3.33
2023-05-21T13:39:56.578Z,3.45
2023-05-21T13:42:23.750Z,3.40
2023-05-21T13:44:50.729Z,3.08
2023-05-21T13:47:17.668Z,2.85
2023-05-21T13:52:11.805Z,3.35
2023-05-21T13:54:39.810Z,2.63
2023-05-21T13:57:06.728Z,3.20
2023-05-21T14:02:01.256Z,3.00
2023-05-21T14:04:28.499Z,3.40
2023-05-21T14:06:55.475Z,2.55
2023-05-21T14:09:23.437Z,2.97
2023-05-21T14:11:50.791Z,3.22
2023-05-21T14:14:19.040Z,2.90
2023-05-21T14:16:49.756Z,3.28
2023-05-21T14:19:17.099Z,3.10
2023-05-21T14:21:44.331Z,2.80
2023-05-21T14:24:11.231Z,3.00
2023-05-21T14:26:40.888Z,2.90
2023-05-21T14:29:08.301Z,3.08
2023-05-21T14:31:35.605Z,2.28
2023-05-21T14:34:07.795Z,3.03
2023-05-21T14:36:35.078Z,2.67
2023-05-21T14:39:02.200Z,2.97
2023-05-21T14:41:29.412Z,2.90
2023-05-21T14:43:56.319Z,2.90
2023-05-21T14:46:23.275Z,2.85
2023-05-21T14:48:50.252Z,3.47
2023-05-21T14:51:17.184Z,2.25
2023-05-21T14:53:44.076Z,3.10
2023-05-21T14:56:10.984Z,2.97
2023-05-21T14:58:37.896Z,2.60
2023-05-21T15:01:04.982Z,2.47
2023-05-21T15:03:31.975Z,3.45
2023-05-21T15:05:59.030Z,2.95
2023-05-21T15:10:52.751Z,2.47
2023-05-21T15:15:49.017Z,2.88
2023-05-21T15:18:15.978Z,2.72
2023-05-21T15:20:43.189Z,3.25
2023-05-21T15:25:45.432Z,2.88
2023-05-21T15:28:12.709Z,3.03
2023-05-21T15:30:40.246Z,3.47
2023-05-21T15:33:07.257Z,2.28
2023-05-21T15:35:36.370Z,2.60
2023-05-21T15:38:03.852Z,2.70
2023-05-21T15:40:31.810Z,2.80
2023-05-21T15:42:58.854Z,2.45
2023-05-21T15:45:25.837Z,2.78
2023-05-21T15:47:53.029Z,2.53
2023-05-21T15:50:20.038Z,2.53
2023-05-21T15:52:47.072Z,2.30
2023-05-21T15:55:14.278Z,2.30
2023-05-21T15:57:41.400Z,3.13
2023-05-21T16:00:09.901Z,2.38
2023-05-21T16:02:37.342Z,3.30
2023-05-21T16:05:04.550Z,2.97
2023-05-21T16:07:31.514Z,2.95
2023-05-21T16:09:58.482Z,2.80
2023-05-21T16:12:25.913Z,2.65
2023-05-21T16:14:52.820Z,2.63
2023-05-21T16:17:20.116Z,3.00
2023-05-21T16:19:47.415Z,3.15
2023-05-21T16:22:14.802Z,3.10
2023-05-21T16:24:41.726Z,2.95
2023-05-21T16:27:08.728Z,3.00
2023-05-21T16:29:35.706Z,3.28
2023-05-21T16:32:02.954Z,3.47
2023-05-21T16:34:30.487Z,3.28
2023-05-21T16:36:58.553Z,3.08
2023-05-21T16:39:25.541Z,3.28
2023-05-21T16:41:53.891Z,2.80
2023-05-21T16:44:20.940Z,2.88
2023-05-21T16:46:47.850Z,2.80
2023-05-21T16:51:41.569Z,3.05
2023-05-21T16:56:35.308Z,2.70
2023-05-21T17:01:29.092Z,2.70
2023-05-21T17:03:56.416Z,2.83
2023-05-21T17:06:24.066Z,2.53
2023-05-21T17:08:51.038Z,2.88
2023-05-21T17:13:48.266Z,3.22
2023-05-21T17:16:15.281Z,2.58
2023-05-21T17:18:42.297Z,3.00
2023-05-21T17:23:36.357Z,2.40
2023-05-21T17:26:03.293Z,2.55
2023-05-21T17:30:56.937Z,2.95
2023-05-21T17:35:52.436Z,3.10
2023-05-21T17:40:46.168Z,2.45
2023-05-21T17:45:40.443Z,2.70
2023-05-21T17:48:07.475Z,3.13
2023-05-21T17:53:01.247Z,2.80
2023-05-21T17:57:55.087Z,2.55
2023-05-21T18:02:48.968Z,2.58
2023-05-21T18:07:42.682Z,2.63
2023-05-21T18:10:09.780Z,3.53
2023-05-21T18:12:36.650Z,3.22
2023-05-21T18:15:03.804Z,2.95
2023-05-21T18:17:30.895Z,3.25
2023-05-21T18:22:24.746Z,2.50
2023-05-21T18:24:51.761Z,3.88
2023-05-21T18:29:46.799Z,3.33
2023-05-21T18:32:15.117Z,3.38
2023-05-21T18:34:47.575Z,3.67
2023-05-21T18:37:14.763Z,3.53
2023-05-21T18:39:41.660Z,3.55
2023-05-21T18:42:13.568Z,3.47
2023-05-21T18:44:41.357Z,3.05
2023-05-21T18:49:36.135Z,3.50
2023-05-21T18:52:04.626Z,2.92
2023-05-21T18:54:31.677Z,3.10
2023-05-21T18:59:28.494Z,3.60
2023-05-21T19:01:55.556Z,3.85
2023-05-21T19:04:22.697Z,3.22
2023-05-21T19:09:16.474Z,3.17
2023-05-21T19:11:43.456Z,3.85
2023-05-21T19:14:10.512Z,3.55
2023-05-21T19:19:04.311Z,3.03
2023-05-21T19:23:58.527Z,3.38
2023-05-21T19:28:55.396Z,4.25
2023-05-21T19:31:23.521Z,2.85
2023-05-21T19:33:51.082Z,1.92
2023-05-21T19:36:20.357Z,1.80
2023-05-21T19:38:50.650Z,1.75
2023-05-21T19:41:18.549Z,1.80
2023-05-21T19:43:46.017Z,1.63
2023-05-21T19:46:14.312Z,1.83
2023-05-21T19:48:42.233Z,1.52
2023-05-21T19:51:09.148Z,1.77
2023-05-21T19:53:36.473Z,2.20
2023-05-21T19:56:03.430Z,1.63
2023-05-21T19:58:30.812Z,2.00
2023-05-21T20:01:00.881Z,1.52
2023-05-21T20:03:31.940Z,2.60
2023-05-21T20:05:59.020Z,2.40
2023-05-21T20:08:25.914Z,2.42
2023-05-21T20:13:21.753Z,2.15
2023-05-21T20:15:49.771Z,1.90
2023-05-21T20:18:16.939Z,1.83
2023-05-21T20:20:43.955Z,2.25
2023-05-21T20:23:10.855Z,2.28
2023-05-21T20:25:37.814Z,2.50
2023-05-21T20:28:05.500Z,2.20
2023-05-21T20:30:34.126Z,2.40
2023-05-21T20:33:02.124Z,2.05
2023-05-21T20:35:29.846Z,2.40
2023-05-21T20:37:56.715Z,1.80
2023-05-21T20:40:23.583Z,2.50
2023-05-21T20:42:52.939Z,2.67
2023-05-21T20:45:20.946Z,2.63
2023-05-21T20:47:49.645Z,3.22
2023-05-21T20:50:17.651Z,2.30
2023-05-21T20:52:47.016Z,3.10
2023-05-21T20:55:14.446Z,2.90
2023-05-21T20:57:41.928Z,3.05
2023-05-21T21:02:38.903Z,2.05
2023-05-21T21:05:06.465Z,2.55
2023-05-21T21:07:34.044Z,1.95
2023-05-21T21:10:01.326Z,2.28
2023-05-21T21:14:55.601Z,2.10
2023-05-21T21:17:22.990Z,2.55
2023-05-21T21:19:50.073Z,2.33
2023-05-21T21:22:18.059Z,2.75
2023-05-21T21:24:45.496Z,1.92
2023-05-21T21:27:12.452Z,2.55
2023-05-21T21:29:39.296Z,2.35
2023-05-21T21:32:06.591Z,2.45
2023-05-21T21:37:00.238Z,2.17
2023-05-21T21:39:27.082Z,2.33
2023-05-21T21:41:54.035Z,2.20
2023-05-21T21:44:20.872Z,2.10
2023-05-21T21:46:47.782Z,1.98
2023-05-21T21:49:19.000Z,3.30
2023-05-21T21:51:45.925Z,2.88
2023-05-21T21:54:12.770Z,2.70
2023-05-21T21:56:39.769Z,2.63
2023-05-21T21:59:06.629Z,2.53
2023-05-21T22:01:33.920Z,2.53
2023-05-21T22:04:00.906Z,2.60
2023-05-21T22:06:28.544Z,3.08
2023-05-21T22:08:55.701Z,2.60
2023-05-21T22:16:16.451Z,2.10
2023-05-21T22:18:43.565Z,3.15
2023-05-21T22:21:13.952Z,2.35
2023-05-21T22:23:41.059Z,3.42
2023-05-21T22:26:08.883Z,2.75
2023-05-21T22:28:35.932Z,2.95
2023-05-21T22:31:03.190Z,3.38
2023-05-21T22:33:30.287Z,2.85
2023-05-21T22:35:58.083Z,2.45
2023-05-21T22:38:25.722Z,3.20
2023-05-21T22:40:52.714Z,3.15
2023-05-21T22:43:19.770Z,3.40
2023-05-21T22:45:46.934Z,3.70
2023-05-21T22:48:14.169Z,3.38
2023-05-21T22:53:08.324Z,2.70
2023-05-21T22:55:35.299Z,3.08
2023-05-21T22:58:02.527Z,2.92
2023-05-21T23:00:29.636Z,2.88
2023-05-21T23:05:23.494Z,3.15
2023-05-21T23:07:50.423Z,2.65
2023-05-21T23:10:17.292Z,3.13
2023-05-21T23:12:44.150Z,3.13
2023-05-21T23:15:11.279Z,3.38
2023-05-21T23:17:38.701Z,2.55
2023-05-21T23:20:11.222Z,2.70
2023-05-21T23:22:38.073Z,2.70
2023-05-21T23:25:05.679Z,2.45
2023-05-21T23:27:32.611Z,2.83
2023-05-21T23:29:59.838Z,2.83
2023-05-21T23:34:54.234Z,2.53
2023-05-21T23:37:21.266Z,3.05
2023-05-21T23:39:49.592Z,2.72
2023-05-21T23:42:17.437Z,1.75
2023-05-21T23:44:44.563Z,2.30
2023-05-21T23:47:11.421Z,1.88
2023-05-21T23:49:39.018Z,2.25
2023-05-21T23:52:06.459Z,2.15
2023-05-21T23:54:33.332Z,2.40
2023-05-21T23:57:00.230Z,2.92
2023-05-21T23:59:27.128Z,2.40
